This is the latest recevied weather packets stored in our database for station/object IK4PKL-13. If no packets are shown the sender has not sent any weather packets the latest 10 day(s).
| Time | Temp. | Humidity | Pressure | Rain* | Wind** | Luminosity | Snow |
|---|---|---|---|---|---|---|---|
| 1777025728 | 20° C | 43% | 1021.1 hPa | 0 mm | - | 649 W/m² | - |
| 1777023936 | 19.44° C | 44% | 1021.3 hPa | 0 mm | - | 622 W/m² | - |
| 1777014322 | 16.67° C | 45% | 1021.5 hPa | 0 mm | - | 297 W/m² | - |
| 1777007747 | 11.11° C | 58% | 1021.9 hPa | 0 mm | - | 54 W/m² | - |
| 1777006564 | 7.78° C | 67% | 1021.7 hPa | 0 mm | - | 30 W/m² | - |
| 1777005369 | 7.22° C | 69% | 1021.7 hPa | 0 mm | - | 13 W/m² | - |
| 1777003538 | 6.67° C | 73% | 1021.7 hPa | 0 mm | - | 1 W/m² | - |
| 1777001744 | 7.22° C | 69% | 1021.6 hPa | 0 mm | - | 0 W/m² | - |
| 1776992144 | 8.33° C | 62% | 1021.6 hPa | 0 mm | - | 0 W/m² | - |
| 1776987920 | 8.33° C | 69% | 1022 hPa | 0 mm | - | 0 W/m² | - |
| 1776984336 | 8.89° C | 66% | 1022.5 hPa | 0 mm | - | 0 W/m² | - |
| 1776983136 | 9.44° C | 65% | 1022.4 hPa | 0 mm | - | 0 W/m² | - |
| 1776982528 | 9.44° C | 65% | 1022.6 hPa | 0 mm | - | 0 W/m² | - |
| 1776981919 | 8.89° C | 65% | 1022.4 hPa | 0 mm | - | 0 W/m² | - |
| 1776980143 | 9.44° C | 65% | 1022.5 hPa | 0 mm | - | 0 W/m² | - |
| 1776978928 | 10° C | 66% | 1022.5 hPa | 0 mm | - | 0 W/m² | - |
| 1776977745 | 10° C | 63% | 1022.5 hPa | 0 mm | - | 0 W/m² | - |
| 1776975343 | 11.11° C | 62% | 1022.5 hPa | 0 mm | - | 0 W/m² | - |
| 1776973520 | 12.22° C | 57% | 1022.4 hPa | 0 mm | - | 0 W/m² | - |
| 1776972964 | 12.22° C | 55% | 1022.5 hPa | 0 mm | - | 0 W/m² | - |
| 1776971748 | 13.33° C | 50% | 1022.3 hPa | 0 mm | - | 0 W/m² | - |
| 1776969363 | 15.56° C | 38% | 1021.9 hPa | 0 mm | - | 0 W/m² | - |
| 1776968164 | 15.56° C | 38% | 1021.8 hPa | 0 mm | - | 1 W/m² | - |
| 1776967537 | 16.11° C | 37% | 1021.8 hPa | 0 mm | - | 3 W/m² | - |
| 1776963960 | 18.89° C | 28% | 1022 hPa | 0 mm | - | 42 W/m² | - |
* Rain latest hour (hover to see other rain measurements)
** Current wind speed in m/s (hover to see current wind gust speed)